Euxton, United Kingdom
Current Conditions -  °F | °C
As of 11:20 AM on Thursday 23 Oct 2014 (Local Time) from EGNO Reporting Station
Broken Clouds Broken Clouds  
Wind Chill: 55°   Ceiling: 2100
Heat Index: 55°   Visibility: 6mi
Dew Point: 54°   Wind: 10mph
Humidity: 94%   Direction: 180°S
Pressure: 29.94"   Gusts: NA
Location:  53.67°N, 2.68°W
Report Text: EGNO 231020Z 18009KT 9999 FEW013 BKN021 13/12 Q1014
Loading
Personal Weather Stations






























Interactive Weather Map
Tropical Storm Tracking
New forecast layout! Learn more

10-Day Weather Forecast

Advertisements
Track Severe Weather on mobile